La France, South Carolina
Current Conditions -  °F | °C
As of 7:54 PM on Tuesday 21 Oct 2014 (Local Time) from KCEU Reporting Station
Clear Clear  
Wind Chill: 66°   Ceiling: Unl
Heat Index: 66°   Visibility: 10mi
Dew Point: 40°   Wind: 10mph
Humidity: 38%   Direction: 320°NW
Pressure: 29.95"   Gusts: 20mph
Location:  34.61°N, 82.77°W
Report Text: KCEU 212354Z AUTO 32009G17KT 10SM CLR 19/04 A2995 RMK AO2 SLP136 T01890044 10244 20189 53016
Loading
Personal Weather Stations






























Interactive Weather Map
Tropical Storm Tracking
New forecast layout! Learn more

10-Day Weather Forecast

Advertisements
Track Severe Weather on mobile